Time;durP1;ratioP1;P1;durP2;ratioP2;P2;SDS_P1;SDS_P2;PMS_P1;PMS_P2;Temp;Humidity;BMP_temperature;BMP_pressure;BME280_temperature;BME280_humidity;BME280_pressure;Samples;Min_cycle;Max_cycle;Signal;HPM_P1;HPM_P2
2024/01/02 00:01:39;;;;;;;4.03;1.37;;;9.00;65.80;7.70;95942.00;;;;4994628;28;20669;-86
2024/01/02 00:04:12;;;;;;;2.50;1.20;;;9.00;65.80;7.70;95927.00;;;;4984059;28;20250;-86
2024/01/02 00:06:40;;;;;;;3.33;1.40;;;9.00;65.80;7.70;95919.00;;;;4999800;28;20229;-86
2024/01/02 00:09:10;;;;;;;5.83;1.73;;;9.10;65.90;7.70;95927.00;;;;4978944;28;20230;-85
2024/01/02 00:11:38;;;;;;;6.50;1.50;;;9.10;65.90;7.80;95928.00;;;;4987316;28;20208;-86
2024/01/02 00:14:08;;;;;;;3.47;1.03;;;9.10;66.10;7.80;95913.00;;;;4981194;28;20288;-86
2024/01/02 00:16:36;;;;;;;3.90;1.10;;;9.10;66.00;7.80;95914.00;;;;4991991;28;20664;-87
2024/01/02 00:19:03;;;;;;;2.37;1.07;;;8.50;65.60;7.80;95913.00;;;;4993242;28;20219;-87
2024/01/02 00:21:30;;;;;;;4.97;1.60;;;9.20;66.00;7.80;95904.00;;;;4993141;28;20213;-87
2024/01/02 00:24:01;;;;;;;2.83;1.20;;;8.30;65.30;7.80;95903.00;;;;4980380;28;20258;-86
2024/01/02 00:26:29;;;;;;;7.47;1.53;;;9.20;65.80;7.80;95892.00;;;;4987879;28;20217;-87
2024/01/02 00:29:01;;;;;;;3.60;1.73;;;9.20;65.80;7.80;95894.00;;;;4980809;28;20721;-86
2024/01/02 00:31:33;;;;;;;6.60;1.33;;;9.20;65.80;7.80;95893.00;;;;4986325;28;20659;-87
2024/01/02 00:34:01;;;;;;;3.33;1.60;;;9.20;65.80;7.90;95898.00;;;;4985739;28;20238;-88
2024/01/02 00:36:37;;;;;;;2.07;1.47;;;9.20;65.90;7.90;95883.00;;;;4987939;28;20265;-87
2024/01/02 00:39:08;;;;;;;2.40;1.70;;;9.20;65.60;7.90;95887.00;;;;4983864;28;20221;-87
2024/01/02 00:41:38;;;;;;;1.97;1.50;;;9.20;65.60;7.80;95878.00;;;;4989017;28;20209;-87
2024/01/02 00:44:07;;;;;;;4.37;1.87;;;9.20;65.50;7.80;95879.00;;;;4973747;28;20287;-87
2024/01/02 00:46:36;;;;;;;3.53;1.83;;;9.20;65.50;7.80;95880.00;;;;4990360;28;20195;-87
2024/01/02 00:49:06;;;;;;;3.87;1.50;;;9.20;65.60;7.70;95878.00;;;;4982683;28;20215;-87
2024/01/02 00:51:42;;;;;;;4.53;1.87;;;9.10;65.40;7.70;95873.00;;;;4983672;28;20680;-87
2024/01/02 00:54:13;;;;;;;5.67;1.87;;;9.10;65.50;7.70;95877.00;;;;4979080;28;20218;-87
2024/01/02 00:56:40;;;;;;;1.87;1.37;;;9.10;65.50;7.70;95863.00;;;;4983253;28;20743;-86
2024/01/02 00:59:14;;;;;;;2.50;1.40;;;9.00;65.70;7.70;95855.00;;;;4979674;28;20744;-88
2024/01/02 01:01:43;;;;;;;1.63;1.10;;;9.00;65.70;7.70;95858.00;;;;4991142;28;20263;-86
2024/01/02 01:04:10;;;;;;;1.47;0.97;;;8.20;65.10;7.70;95859.00;;;;4987472;28;20195;-88
2024/01/02 01:06:38;;;;;;;6.37;1.10;;;9.00;65.40;7.60;95853.00;;;;4989253;28;20205;-85
2024/01/02 01:09:05;;;;;;;3.87;1.00;;;8.90;65.40;7.60;95841.00;;;;4980645;28;20222;-84
2024/01/02 01:11:33;;;;;;;4.13;1.10;;;9.00;65.60;7.60;95851.00;;;;4991801;28;20269;-86
2024/01/02 01:14:05;;;;;;;3.43;1.00;;;9.00;65.60;7.60;95844.00;;;;4991973;28;20218;-86
2024/01/02 01:16:33;;;;;;;8.33;1.03;;;9.00;65.70;7.60;95842.00;;;;4975503;28;20778;-85
2024/01/02 01:19:01;;;;;;;1.87;0.90;;;9.00;65.50;7.70;95839.00;;;;4989534;28;20261;-86
2024/01/02 01:21:28;;;;;;;1.10;0.80;;;9.00;65.60;7.70;95825.00;;;;4982533;28;20290;-86
2024/01/02 01:23:55;;;;;;;2.60;0.90;;;9.00;65.20;7.70;95834.00;;;;4987581;28;20203;-85
2024/01/02 01:26:23;;;;;;;1.23;0.80;;;9.00;65.20;7.70;95831.00;;;;4980439;28;20210;-85
2024/01/02 01:28:53;;;;;;;3.77;0.73;;;9.00;65.20;7.70;95819.00;;;;4983066;28;21286;-86
2024/01/02 01:31:22;;;;;;;5.97;1.03;;;9.90;65.80;7.70;95827.00;;;;4991870;28;20194;-88
2024/01/02 01:33:51;;;;;;;3.80;0.90;;;9.10;65.50;7.70;95834.00;;;;4982690;28;20699;-86
2024/01/02 01:36:18;;;;;;;6.47;1.10;;;9.20;65.50;7.70;95830.00;;;;4991926;28;20301;-85
2024/01/02 01:38:45;;;;;;;2.83;0.90;;;9.10;65.50;7.70;95831.00;;;;4990247;28;20793;-86
2024/01/02 01:41:13;;;;;;;1.63;0.73;;;9.10;65.50;7.80;95818.00;;;;4975924;28;20666;-87
2024/01/02 01:43:40;;;;;;;3.77;1.20;;;9.20;65.30;7.80;95829.00;;;;4976718;28;20211;-87
2024/01/02 01:46:11;;;;;;;2.60;0.80;;;9.10;65.00;7.80;95831.00;;;;4990719;28;20285;-87
2024/01/02 01:48:41;;;;;;;2.43;0.87;;;9.10;65.00;7.80;95824.00;;;;4989050;28;20237;-86
2024/01/02 01:51:12;;;;;;;1.63;0.97;;;9.10;64.90;7.80;95831.00;;;;4982833;28;20283;-86
2024/01/02 01:53:44;;;;;;;2.63;1.10;;;9.10;65.40;7.80;95832.00;;;;4988660;28;20286;-83
2024/01/02 01:56:11;;;;;;;3.03;0.83;;;9.20;65.00;7.80;95821.00;;;;4982713;28;20214;-88
2024/01/02 01:58:39;;;;;;;2.07;0.97;;;9.10;64.70;7.80;95825.00;;;;4982195;28;20646;-85
2024/01/02 02:01:08;;;;;;;1.20;1.03;;;9.30;64.90;7.90;95811.00;;;;4983116;28;20214;-85
2024/01/02 02:03:37;;;;;;;1.70;1.00;;;9.20;64.70;7.90;95815.00;;;;4982384;28;20258;-86
2024/01/02 02:06:04;;;;;;;1.57;1.07;;;9.20;64.50;7.90;95824.00;;;;4989443;28;20257;-86
2024/01/02 02:08:34;;;;;;;6.43;1.67;;;9.20;64.40;7.90;95811.00;;;;4985904;28;20560;-84
2024/01/02 02:11:02;;;;;;;1.03;0.93;;;9.20;64.20;7.90;95802.00;;;;4991171;28;20561;-87
2024/01/02 02:13:30;;;;;;;2.20;1.20;;;9.20;64.30;7.90;95815.00;;;;4977339;28;20198;-86
2024/01/02 02:15:57;;;;;;;1.80;1.27;;;9.30;64.30;7.90;95805.00;;;;4988027;28;20302;-85
2024/01/02 02:18:26;;;;;;;10.17;1.23;;;9.30;64.10;7.90;95799.00;;;;4989671;28;20233;-86
2024/01/02 02:20:55;;;;;;;2.40;0.93;;;9.30;64.10;7.90;95800.00;;;;4989190;28;20676;-84
2024/01/02 02:23:23;;;;;;;1.63;0.97;;;9.30;64.20;7.90;95804.00;;;;4989316;28;20218;-86
2024/01/02 02:25:51;;;;;;;2.90;1.40;;;9.30;64.20;7.90;95797.00;;;;4981515;28;20215;-86
2024/01/02 02:28:22;;;;;;;3.03;1.23;;;9.30;64.20;7.90;95793.00;;;;4987336;28;20204;-86
2024/01/02 02:30:57;;;;;;;1.77;1.20;;;7.80;63.40;7.90;95786.00;;;;4976405;28;20214;-86
2024/01/02 02:33:24;;;;;;;2.60;1.27;;;9.30;64.30;8.00;95784.00;;;;4978329;28;20209;-87
2024/01/02 02:36:02;;;;;;;;;;;;;;;;;;;;;
2024/01/02 02:38:31;;;;;;;2.07;1.20;;;8.20;63.60;8.00;95793.00;;;;4986275;28;20696;-87
2024/01/02 02:41:00;;;;;;;3.33;1.57;;;9.30;64.20;8.00;95782.00;;;;4988220;28;20203;-86
2024/01/02 02:43:28;;;;;;;1.80;1.00;;;9.40;64.10;8.00;95766.00;;;;4985155;28;20274;-88
2024/01/02 02:45:55;;;;;;;0.70;0.70;;;9.30;64.80;8.00;95766.00;;;;4977576;28;20203;-87
2024/01/02 02:48:23;;;;;;;3.03;0.93;;;9.40;64.10;8.00;95759.00;;;;4984452;28;20205;-87
2024/01/02 02:50:55;;;;;;;8.60;1.37;;;9.40;64.00;8.00;95764.00;;;;4984365;28;20214;-87
2024/01/02 02:53:24;;;;;;;1.80;1.17;;;9.30;64.10;8.10;95772.00;;;;4987443;28;20210;-88
2024/01/02 02:55:57;;;;;;;1.23;1.10;;;9.40;64.30;8.10;95772.00;;;;4980764;28;20233;-86
2024/01/02 02:58:26;;;;;;;2.37;0.93;;;9.40;64.20;8.10;95773.00;;;;4989037;28;20202;-87
2024/01/02 03:00:55;;;;;;;3.20;0.83;;;9.50;64.20;8.10;95765.00;;;;4988905;28;20200;-88
2024/01/02 03:03:23;;;;;;;0.63;0.53;;;8.70;63.70;8.10;95769.00;;;;4990458;28;20199;-87
2024/01/02 03:05:50;;;;;;;1.53;0.80;;;9.50;64.30;8.10;95758.00;;;;4981504;28;20305;-86
2024/01/02 03:08:17;;;;;;;1.50;0.63;;;9.40;64.10;8.10;95754.00;;;;4979811;28;20222;-87
2024/01/02 03:10:45;;;;;;;2.30;0.70;;;9.50;63.90;8.20;95756.00;;;;4989102;28;20718;-86
2024/01/02 03:13:14;;;;;;;1.03;0.50;;;9.30;63.80;8.10;95750.00;;;;4982290;28;20218;-87
2024/01/02 03:15:41;;;;;;;0.43;0.43;;;9.50;63.80;8.10;95745.00;;;;4978067;28;20230;-87
2024/01/02 03:18:08;;;;;;;2.73;0.63;;;9.50;63.40;8.20;95736.00;;;;4984764;28;20206;-87
2024/01/02 03:20:35;;;;;;;0.43;0.40;;;9.50;63.30;8.20;95738.00;;;;4988693;28;20285;-87
2024/01/02 03:23:05;;;;;;;0.60;0.33;;;9.60;63.50;8.20;95740.00;;;;4989693;28;20266;-87
2024/01/02 03:25:33;;;;;;;1.53;0.47;;;9.50;63.20;8.20;95736.00;;;;4984150;28;20285;-87
2024/01/02 03:28:00;;;;;;;0.47;0.40;;;9.50;63.10;8.20;95732.00;;;;4981727;28;20708;-86
2024/01/02 03:30:29;;;;;;;5.73;0.50;;;9.50;63.00;8.20;95726.00;;;;4989832;28;20232;-85
2024/01/02 03:32:56;;;;;;;7.80;0.83;;;9.50;62.90;8.10;95718.00;;;;4976408;28;20203;-87
2024/01/02 03:35:23;;;;;;;1.10;0.97;;;9.50;63.00;8.10;95708.00;;;;4983644;28;20231;-86
2024/01/02 03:37:50;;;;;;;0.40;0.40;;;9.60;63.20;8.10;95699.00;;;;4986997;28;20199;-87
2024/01/02 03:40:18;;;;;;;0.33;0.33;;;9.50;63.10;8.10;95699.00;;;;4975762;28;20305;-86
2024/01/02 03:42:45;;;;;;;1.03;0.47;;;9.50;62.80;8.10;95695.00;;;;4986687;28;20310;-86
2024/01/02 03:45:12;;;;;;;1.37;0.53;;;9.50;62.60;8.10;95702.00;;;;4983969;28;20202;-86
2024/01/02 03:47:41;;;;;;;2.90;0.77;;;9.40;62.40;8.10;95691.00;;;;4971755;28;20666;-85
2024/01/02 03:50:09;;;;;;;1.17;0.70;;;9.40;62.40;8.10;95693.00;;;;4976024;28;20226;-86
2024/01/02 03:52:37;;;;;;;1.07;0.57;;;9.50;62.70;8.10;95693.00;;;;4983831;28;20214;-86
2024/01/02 03:55:05;;;;;;;4.30;0.70;;;9.50;62.90;8.10;95688.00;;;;4978696;28;20733;-86
2024/01/02 03:57:34;;;;;;;0.90;0.57;;;9.40;63.10;8.10;95682.00;;;;4986502;28;20254;-86
2024/01/02 04:00:01;;;;;;;1.00;0.60;;;9.50;63.40;8.10;95680.00;;;;4989313;28;20222;-86
2024/01/02 04:02:29;;;;;;;1.83;0.80;;;9.50;63.50;8.10;95684.00;;;;4989060;28;20692;-86
2024/01/02 04:04:57;;;;;;;1.50;0.50;;;9.50;63.30;8.10;95678.00;;;;4986800;28;20254;-86
2024/01/02 04:07:24;;;;;;;3.00;0.60;;;9.50;63.00;8.10;95655.00;;;;4983886;28;20565;-86
2024/01/02 04:09:54;;;;;;;2.17;0.90;;;9.50;63.30;8.10;95657.00;;;;4979638;28;20302;-86
2024/01/02 04:12:21;;;;;;;0.80;0.50;;;9.50;63.40;8.10;95652.00;;;;4984354;28;20234;-85
2024/01/02 04:14:49;;;;;;;4.60;1.10;;;9.50;63.20;8.20;95654.00;;;;4986993;28;20203;-86
2024/01/02 04:17:16;;;;;;;1.27;0.50;;;9.50;63.20;8.20;95648.00;;;;4983651;28;20255;-86
2024/01/02 04:19:45;;;;;;;0.67;0.60;;;9.50;63.40;8.20;95653.00;;;;4988041;28;20748;-87
2024/01/02 04:22:14;;;;;;;2.87;0.73;;;9.50;63.40;8.20;95644.00;;;;4989450;28;20704;-86
2024/01/02 04:24:41;;;;;;;1.77;0.40;;;9.50;63.10;8.20;95641.00;;;;4982588;28;20564;-85
2024/01/02 04:27:10;;;;;;;1.80;0.70;;;9.60;63.20;8.20;95647.00;;;;4988802;28;20305;-85
2024/01/02 04:29:41;;;;;;;0.93;0.40;;;9.60;63.40;8.30;95644.00;;;;4986191;28;20335;-86
2024/01/02 04:32:08;;;;;;;2.63;0.50;;;9.60;63.20;8.30;95650.00;;;;4973178;28;20287;-86
2024/01/02 04:34:42;;;;;;;5.00;0.53;;;9.60;63.00;8.30;95638.00;;;;4985602;28;20222;-87
2024/01/02 04:37:13;;;;;;;1.53;0.50;;;9.60;63.20;8.30;95645.00;;;;4969389;28;20226;-85
2024/01/02 04:39:40;;;;;;;2.63;0.33;;;9.60;63.20;8.30;95631.00;;;;4973311;28;20223;-85
2024/01/02 04:42:08;;;;;;;1.93;0.33;;;9.60;63.20;8.40;95623.00;;;;4974983;28;20198;-88
2024/01/02 04:44:35;;;;;;;0.93;0.50;;;9.70;62.90;8.40;95619.00;;;;4982282;28;20209;-87
2024/01/02 04:47:03;;;;;;;1.87;0.50;;;9.70;62.90;8.40;95620.00;;;;4990215;28;20203;-88
2024/01/02 04:49:30;;;;;;;5.97;0.63;;;9.00;62.50;8.40;95615.00;;;;4997987;28;20569;-86
2024/01/02 04:51:58;;;;;;;0.90;0.30;;;9.80;63.10;8.40;95620.00;;;;4994823;28;20215;-87
2024/01/02 04:54:27;;;;;;;0.63;0.33;;;9.00;62.50;8.40;95614.00;;;;4997663;28;20650;-86
2024/01/02 04:56:54;;;;;;;5.50;1.13;;;9.70;63.00;8.50;95611.00;;;;4998160;28;20223;-87
2024/01/02 04:59:21;;;;;;;2.00;0.50;;;9.80;63.00;8.50;95607.00;;;;5001787;28;20251;-86
2024/01/02 05:01:49;;;;;;;2.77;0.40;;;10.10;63.10;8.50;95609.00;;;;4995665;28;20270;-87
2024/01/02 05:04:16;;;;;;;0.47;0.33;;;9.80;62.90;8.50;95616.00;;;;5003296;28;20194;-87
2024/01/02 05:06:44;;;;;;;0.57;0.50;;;9.80;62.60;8.50;95616.00;;;;4991540;28;20204;-87
2024/01/02 05:09:11;;;;;;;0.40;0.30;;;9.80;62.40;8.50;95615.00;;;;4995055;28;20634;-88
2024/01/02 05:11:40;;;;;;;2.40;0.40;;;9.80;62.50;8.50;95607.00;;;;4990623;28;20215;-87
2024/01/02 05:14:07;;;;;;;1.57;0.50;;;9.80;62.80;8.50;95606.00;;;;4979202;28;20209;-86
2024/01/02 05:16:35;;;;;;;0.30;0.30;;;9.80;63.10;8.40;95600.00;;;;4991088;28;20281;-87
2024/01/02 05:19:02;;;;;;;1.00;0.40;;;9.80;63.30;8.40;95600.00;;;;4992431;28;20222;-87
2024/01/02 05:21:30;;;;;;;1.23;0.60;;;9.80;63.50;8.40;95592.00;;;;4983347;28;20231;-85
2024/01/02 05:23:57;;;;;;;1.30;0.60;;;9.40;63.10;8.40;95582.00;;;;4991020;28;20718;-83
2024/01/02 05:26:24;;;;;;;0.40;0.40;;;9.70;63.50;8.40;95579.00;;;;4985247;28;20265;-84
2024/01/02 05:28:53;;;;;;;0.40;0.33;;;9.70;63.50;8.40;95575.00;;;;4989815;28;20313;-84
2024/01/02 05:31:20;;;;;;;1.10;0.40;;;9.70;63.80;8.40;95578.00;;;;4990683;28;20203;-84
2024/01/02 05:33:47;;;;;;;2.83;0.70;;;9.70;64.10;8.40;95571.00;;;;4988453;28;20289;-86
2024/01/02 05:36:14;;;;;;;0.40;0.40;;;9.70;64.40;8.40;95564.00;;;;4988234;28;20792;-87
2024/01/02 05:38:42;;;;;;;0.87;0.50;;;9.70;64.40;8.40;95554.00;;;;4983246;28;20326;-86
2024/01/02 05:41:09;;;;;;;0.83;0.40;;;9.70;64.40;8.40;95545.00;;;;4972565;28;20215;-86
2024/01/02 05:43:36;;;;;;;1.90;0.60;;;9.70;63.90;8.40;95535.00;;;;4981669;28;20203;-85
2024/01/02 05:46:05;;;;;;;0.80;0.40;;;9.70;63.90;8.30;95530.00;;;;4989434;28;20271;-86
2024/01/02 05:48:33;;;;;;;0.40;0.30;;;9.70;63.70;8.30;95517.00;;;;4991716;28;20199;-86
2024/01/02 05:51:00;;;;;;;0.60;0.30;;;10.00;63.80;8.30;95515.00;;;;4984660;28;20705;-87
2024/01/02 05:53:27;;;;;;;0.40;0.30;;;8.60;63.00;8.20;95509.00;;;;4992124;28;20645;-85
2024/01/02 05:55:54;;;;;;;0.50;0.50;;;9.60;63.50;8.20;95506.00;;;;4977707;28;20277;-85
2024/01/02 05:58:22;;;;;;;1.50;0.50;;;9.60;63.50;8.20;95499.00;;;;4991159;28;20713;-85
2024/01/02 06:00:49;;;;;;;0.50;0.40;;;9.60;63.20;8.20;95506.00;;;;4984963;28;20276;-86
2024/01/02 06:03:19;;;;;;;8.10;0.80;;;9.60;63.40;8.20;95502.00;;;;4987387;28;20230;-86
2024/01/02 06:05:46;;;;;;;0.70;0.37;;;9.70;63.80;8.20;95507.00;;;;4982854;28;20211;-87
2024/01/02 06:08:13;;;;;;;1.53;0.50;;;9.60;64.30;8.30;95496.00;;;;4980483;28;20199;-87
2024/01/02 06:10:41;;;;;;;0.40;0.40;;;9.60;64.40;8.30;95494.00;;;;4987672;28;20297;-87
2024/01/02 06:13:09;;;;;;;1.00;0.57;;;9.20;64.10;8.30;95483.00;;;;4985741;28;20286;-87
2024/01/02 06:15:36;;;;;;;0.53;0.50;;;9.60;64.10;8.30;95483.00;;;;4983933;28;20293;-87
2024/01/02 06:18:04;;;;;;;0.40;0.40;;;9.60;64.40;8.30;95502.00;;;;4991147;28;20206;-87
2024/01/02 06:20:34;;;;;;;0.57;0.50;;;9.50;64.40;8.30;95484.00;;;;4991062;28;20768;-87
2024/01/02 06:23:01;;;;;;;0.47;0.40;;;9.60;64.00;8.40;95478.00;;;;4981753;28;20199;-87
2024/01/02 06:25:29;;;;;;;0.10;0.10;;;9.70;64.00;8.40;95485.00;;;;4977671;28;20196;-86
2024/01/02 06:27:56;;;;;;;0.30;0.30;;;9.70;64.30;8.40;95485.00;;;;4986765;28;20246;-86
2024/01/02 06:30:26;;;;;;;0.83;0.20;;;9.70;64.50;8.50;95478.00;;;;4989243;28;20218;-86
2024/01/02 06:32:54;;;;;;;0.30;0.30;;;9.70;64.90;8.50;95488.00;;;;4987102;28;20196;-87
2024/01/02 06:35:21;;;;;;;1.07;0.40;;;9.70;65.20;8.50;95477.00;;;;4987698;28;20260;-86
2024/01/02 06:37:50;;;;;;;1.40;0.70;;;9.80;65.30;8.60;95463.00;;;;4980277;28;20267;-86
2024/01/02 06:40:18;;;;;;;0.40;0.40;;;9.80;65.60;8.60;95463.00;;;;4978835;28;20277;-86
2024/01/02 06:42:46;;;;;;;0.40;0.40;;;9.80;65.80;8.60;95447.00;;;;4988718;28;20194;-86
2024/01/02 06:45:14;;;;;;;0.20;0.20;;;9.70;65.90;8.70;95454.00;;;;4986894;28;20210;-86
2024/01/02 06:47:42;;;;;;;0.17;0.17;;;9.90;66.20;8.70;95438.00;;;;4988258;28;20211;-85
2024/01/02 06:50:10;;;;;;;0.50;0.13;;;9.90;66.40;8.70;95423.00;;;;4986229;28;20280;-86
2024/01/02 06:52:37;;;;;;;2.00;0.47;;;10.00;66.70;8.70;95408.00;;;;4989655;28;20668;-86
2024/01/02 06:55:07;;;;;;;2.60;0.30;;;10.00;66.80;8.70;95420.00;;;;4987007;28;20241;-85
2024/01/02 06:57:34;;;;;;;0.50;0.20;;;10.00;67.20;8.70;95420.00;;;;4990141;28;20261;-86
2024/01/02 07:00:02;;;;;;;0.93;0.13;;;10.00;67.50;8.80;95418.00;;;;4986972;28;20634;-85
2024/01/02 07:02:31;;;;;;;0.10;0.10;;;10.00;67.50;8.80;95408.00;;;;4972548;28;20203;-86
2024/01/02 07:04:59;;;;;;;0.93;0.10;;;10.30;68.00;8.80;95400.00;;;;4988141;28;20643;-86
2024/01/02 07:07:26;;;;;;;0.57;0.20;;;9.60;67.60;8.80;95396.00;;;;4980235;28;20720;-85
2024/01/02 07:09:53;;;;;;;0.80;0.10;;;10.10;68.30;8.90;95386.00;;;;4988114;28;20242;-87
2024/01/02 07:12:22;;;;;;;0.80;0.10;;;10.30;68.50;8.90;95376.00;;;;4978860;28;20207;-87
2024/01/02 07:14:49;;;;;;;1.70;0.20;;;10.10;68.50;8.90;95382.00;;;;4986948;28;20202;-88
2024/01/02 07:17:19;;;;;;;0.10;0.10;;;10.20;68.60;9.00;95370.00;;;;4984089;28;20302;-86
2024/01/02 07:19:46;;;;;;;0.87;0.10;;;10.20;68.70;9.00;95357.00;;;;4985341;28;20301;-86
2024/01/02 07:22:14;;;;;;;0.27;0.23;;;10.20;68.50;9.00;95356.00;;;;4989048;28;20202;-85
2024/01/02 07:24:41;;;;;;;0.07;0.07;;;10.20;68.70;9.00;95355.00;;;;4980649;28;20286;-86
2024/01/02 07:27:08;;;;;;;0.10;0.03;;;10.20;68.90;9.00;95339.00;;;;4988570;28;20206;-86
2024/01/02 07:29:37;;;;;;;0.20;0.17;;;10.30;69.20;9.10;95337.00;;;;4975533;28;20235;-86
2024/01/02 07:32:05;;;;;;;0.47;0.10;;;10.30;69.40;9.10;95342.00;;;;4987074;28;20199;-85
2024/01/02 07:34:32;;;;;;;1.33;0.30;;;10.30;69.10;9.10;95338.00;;;;4977917;28;20661;-86
2024/01/02 07:36:59;;;;;;;0.10;0.10;;;10.30;69.20;9.10;95334.00;;;;4983547;28;20668;-87
2024/01/02 07:39:27;;;;;;;0.77;0.17;;;10.30;69.10;9.20;95336.00;;;;4980812;28;20724;-87
2024/01/02 07:41:54;;;;;;;0.57;0.17;;;10.40;69.10;9.20;95328.00;;;;4987788;28;20215;-87
2024/01/02 07:44:22;;;;;;;0.83;0.13;;;10.40;69.40;9.20;95319.00;;;;4984419;28;20753;-86
2024/01/02 07:46:50;;;;;;;0.73;0.20;;;10.40;69.30;9.30;95325.00;;;;4977968;28;20242;-86
2024/01/02 07:49:18;;;;;;;1.43;0.20;;;10.50;69.40;9.30;95337.00;;;;4979503;28;20309;-86
2024/01/02 07:51:45;;;;;;;0.60;0.30;;;10.50;69.50;9.30;95337.00;;;;4982679;28;20282;-86
2024/01/02 07:54:12;;;;;;;1.27;0.20;;;10.60;69.50;9.30;95349.00;;;;4989839;28;20202;-86
2024/01/02 07:56:39;;;;;;;0.10;0.10;;;10.50;69.10;9.40;95334.00;;;;4988482;28;20308;-85
2024/01/02 07:59:06;;;;;;;0.10;0.10;;;10.50;68.80;9.40;95337.00;;;;4972824;28;20711;-86
2024/01/02 08:01:34;;;;;;;0.50;0.37;;;10.60;68.60;9.40;95329.00;;;;4988986;28;20653;-86
2024/01/02 08:04:02;;;;;;;0.50;0.47;;;10.60;69.00;9.50;95322.00;;;;4981633;28;20213;-86
2024/01/02 08:06:30;;;;;;;0.60;0.40;;;10.50;68.90;9.50;95322.00;;;;4989104;28;20194;-86
2024/01/02 08:08:57;;;;;;;1.40;0.20;;;10.70;69.00;9.50;95319.00;;;;4975631;28;20219;-85
2024/01/02 08:11:24;;;;;;;2.07;0.40;;;10.70;68.90;9.60;95320.00;;;;4987829;28;20282;-86
2024/01/02 08:13:51;;;;;;;0.77;0.37;;;10.70;69.00;9.60;95319.00;;;;4976920;28;20214;-85
2024/01/02 08:16:20;;;;;;;0.97;0.10;;;10.70;69.00;9.60;95317.00;;;;4976189;28;20290;-86
2024/01/02 08:18:47;;;;;;;0.20;0.20;;;10.80;68.40;9.60;95314.00;;;;4974971;28;20290;-86
2024/01/02 08:21:15;;;;;;;2.30;0.20;;;10.80;68.00;9.60;95322.00;;;;4979572;28;20262;-87
2024/01/02 08:23:43;;;;;;;0.57;0.40;;;10.80;67.70;9.60;95322.00;;;;4986501;28;20657;-85
2024/01/02 08:26:13;;;;;;;0.20;0.20;;;10.80;67.40;9.60;95328.00;;;;4981342;28;20230;-85
2024/01/02 08:28:43;;;;;;;1.33;0.33;;;10.90;66.60;9.60;95322.00;;;;4968810;28;20290;-86
2024/01/02 08:31:11;;;;;;;1.43;0.30;;;10.80;67.10;9.60;95327.00;;;;4978005;28;20210;-85
2024/01/02 08:33:38;;;;;;;0.50;0.30;;;10.80;66.20;9.50;95321.00;;;;4988703;28;20209;-86
2024/01/02 08:36:09;;;;;;;1.20;0.20;;;10.80;66.30;9.50;95317.00;;;;4986675;28;20202;-86
2024/01/02 08:38:38;;;;;;;0.40;0.23;;;10.80;67.00;9.50;95314.00;;;;4977451;28;20223;-85
2024/01/02 08:41:05;;;;;;;1.13;0.37;;;10.80;65.70;9.50;95313.00;;;;4983952;28;20203;-86
2024/01/02 08:43:33;;;;;;;1.53;0.30;;;10.80;65.80;9.50;95311.00;;;;4984553;28;20242;-86
2024/01/02 08:46:00;;;;;;;2.50;0.30;;;10.80;65.80;9.40;95319.00;;;;4985161;28;20283;-87
2024/01/02 08:48:29;;;;;;;3.13;0.30;;;10.80;66.10;9.40;95304.00;;;;4978746;28;20585;-87
2024/01/02 08:50:57;;;;;;;0.20;0.20;;;10.80;66.10;9.40;95305.00;;;;4987949;28;20195;-87
2024/01/02 08:53:24;;;;;;;0.30;0.20;;;10.70;66.00;9.30;95295.00;;;;4980411;28;20218;-86
2024/01/02 08:55:53;;;;;;;0.73;0.40;;;10.70;65.60;9.30;95298.00;;;;4984744;28;20895;-87
2024/01/02 08:58:23;;;;;;;3.40;0.60;;;10.80;66.10;9.30;95297.00;;;;4975993;28;20221;-84
2024/01/02 09:00:51;;;;;;;0.67;0.30;;;10.70;66.50;9.20;95298.00;;;;4974598;28;20196;-86
2024/01/02 09:03:18;;;;;;;0.63;0.40;;;10.60;66.50;9.20;95301.00;;;;4981962;28;20282;-86
2024/01/02 09:05:46;;;;;;;2.93;0.50;;;10.60;66.50;9.20;95289.00;;;;4981875;28;20207;-88
2024/01/02 09:08:14;;;;;;;0.50;0.40;;;10.60;66.70;9.20;95304.00;;;;4981209;28;20653;-87
2024/01/02 09:10:43;;;;;;;0.50;0.47;;;10.50;66.80;9.20;95300.00;;;;4975634;28;20226;-85
2024/01/02 09:13:13;;;;;;;0.57;0.33;;;10.50;66.50;9.20;95294.00;;;;4989836;28;20234;-87
2024/01/02 09:15:40;;;;;;;1.07;0.60;;;10.50;66.70;9.10;95293.00;;;;4980439;28;20200;-88
2024/01/02 09:18:08;;;;;;;3.27;2.17;;;10.90;67.10;9.10;95297.00;;;;4971945;28;20218;-87
2024/01/02 09:20:35;;;;;;;5.57;3.80;;;10.50;67.40;9.10;95304.00;;;;4980869;28;20227;-87
2024/01/02 09:23:03;;;;;;;3.50;3.20;;;10.50;67.80;9.10;95290.00;;;;4984913;28;20214;-88
2024/01/02 09:25:34;;;;;;;10.17;4.50;;;10.50;67.90;9.10;95286.00;;;;4982043;28;20210;-88
2024/01/02 09:28:06;;;;;;;2.57;2.03;;;11.00;68.40;9.10;95289.00;;;;4990113;28;20225;-87
2024/01/02 09:30:35;;;;;;;9.93;9.00;;;10.50;67.80;9.00;95291.00;;;;4975636;28;20223;-87
2024/01/02 09:33:09;;;;;;;1.60;1.50;;;10.40;67.20;9.00;95295.00;;;;4975112;28;20439;-84
2024/01/02 09:35:38;;;;;;;1.83;1.03;;;10.40;67.20;9.00;95291.00;;;;4982834;28;20206;-87
2024/01/02 09:38:05;;;;;;;1.93;1.37;;;10.40;67.30;8.90;95289.00;;;;4986533;28;20219;-87
2024/01/02 09:40:59;;;;;;;2.30;1.10;;;10.40;67.50;8.90;95277.00;;;;4966831;28;20228;-87
2024/01/02 09:43:48;;;;;;;2.73;0.90;;;10.40;68.50;8.90;95287.00;;;;4972518;28;20257;-87
2024/01/02 09:46:29;;;;;;;2.03;0.93;;;10.40;69.00;8.90;95274.00;;;;4981455;28;20621;-87
2024/01/02 09:49:21;;;;;;;0.93;0.60;;;10.30;68.80;8.90;95274.00;;;;4979539;28;20314;-87
2024/01/02 09:52:21;;;;;;;1.17;0.70;;;10.40;69.00;9.00;95268.00;;;;4967879;28;20214;-84
2024/01/02 09:55:04;;;;;;;0.97;0.80;;;10.40;69.10;9.00;95268.00;;;;4974094;28;20262;-86
2024/01/02 09:57:41;;;;;;;0.80;0.80;;;10.40;69.10;9.00;95250.00;;;;4971754;28;20251;-86
2024/01/02 10:00:18;;;;;;;1.20;1.10;;;10.50;69.40;9.00;95251.00;;;;4978400;28;20286;-86
2024/01/02 10:03:19;;;;;;;1.30;1.00;;;10.50;69.70;9.10;95254.00;;;;4980348;28;20298;-85
2024/01/02 10:06:04;;;;;;;1.60;0.70;;;10.50;69.80;9.10;95249.00;;;;4986531;28;20214;-84
2024/01/02 10:08:56;;;;;;;1.67;1.57;;;10.50;69.90;9.20;95248.00;;;;4974141;28;20293;-85
2024/01/02 10:11:35;;;;;;;2.30;2.03;;;10.60;70.30;9.30;95248.00;;;;4974329;28;20286;-86
2024/01/02 10:14:13;;;;;;;1.90;1.80;;;10.60;70.50;9.30;95238.00;;;;4990245;28;20202;-86
2024/01/02 10:16:54;;;;;;;3.77;3.03;;;10.60;70.50;9.40;95236.00;;;;4975243;28;20289;-85
2024/01/02 10:19:32;;;;;;;5.03;4.53;;;10.70;70.80;9.50;95228.00;;;;4985571;28;20919;-85
2024/01/02 10:22:12;;;;;;;5.20;3.30;;;10.70;70.90;9.50;95242.00;;;;4979065;28;20234;-85
2024/01/02 10:24:52;;;;;;;1.90;1.70;;;10.80;71.10;9.60;95245.00;;;;4984468;28;20250;-86
2024/01/02 10:27:33;;;;;;;0.80;0.80;;;10.80;71.30;9.70;95237.00;;;;4984336;28;20214;-86
2024/01/02 10:30:07;;;;;;;2.60;1.40;;;10.90;71.40;9.80;95233.00;;;;4982713;28;20255;-86
2024/01/02 10:32:48;;;;;;;2.80;1.40;;;11.00;71.40;9.90;95234.00;;;;4971296;28;20293;-84
2024/01/02 10:35:27;;;;;;;1.27;0.50;;;11.00;71.60;9.90;95229.00;;;;4979142;28;20214;-85
2024/01/02 10:38:09;;;;;;;0.40;0.40;;;11.10;71.70;10.00;95216.00;;;;4972010;28;20689;-86
2024/01/02 10:40:47;;;;;;;0.63;0.43;;;11.20;71.80;10.10;95222.00;;;;4974843;28;20291;-85
2024/01/02 10:43:27;;;;;;;1.10;0.90;;;11.20;71.80;10.20;95221.00;;;;4972064;28;20276;-85
2024/01/02 10:46:05;;;;;;;0.70;0.60;;;11.30;71.90;10.20;95224.00;;;;4981213;28;20210;-85
2024/01/02 10:48:52;;;;;;;0.50;0.50;;;11.30;71.80;10.30;95210.00;;;;4973085;28;20629;-84
2024/01/02 10:51:40;;;;;;;0.73;0.40;;;11.60;71.90;10.40;95206.00;;;;4984572;28;20195;-85
2024/01/02 10:54:14;;;;;;;1.40;1.20;;;11.50;71.50;10.40;95209.00;;;;4976119;28;20229;-86
2024/01/02 10:56:50;;;;;;;0.80;0.40;;;11.60;71.60;10.50;95210.00;;;;4980870;28;20199;-86
2024/01/02 10:59:44;;;;;;;0.60;0.40;;;11.60;71.70;10.50;95212.00;;;;4967545;28;20483;-86
2024/01/02 11:02:41;;;;;;;0.33;0.30;;;11.60;71.90;10.60;95192.00;;;;4971520;28;20224;-85
2024/01/02 11:05:13;;;;;;;0.33;0.33;;;11.70;71.70;10.70;95202.00;;;;4972461;28;20278;-85
2024/01/02 11:07:50;;;;;;;0.30;0.30;;;11.80;71.60;10.70;95208.00;;;;4972333;28;20258;-85
2024/01/02 11:10:22;;;;;;;0.70;0.70;;;11.80;71.50;10.70;95197.00;;;;4968928;28;20635;-86
2024/01/02 11:12:59;;;;;;;0.77;0.60;;;11.90;71.40;10.80;95197.00;;;;4975207;28;20211;-85
2024/01/02 11:15:33;;;;;;;0.80;0.47;;;11.90;71.50;10.80;95201.00;;;;4974418;28;20217;-87
2024/01/02 11:18:04;;;;;;;0.30;0.30;;;12.00;71.60;10.80;95209.00;;;;4977579;28;20255;-86
2024/01/02 11:20:39;;;;;;;0.77;0.20;;;12.20;71.80;10.90;95207.00;;;;4976206;28;20250;-86